Time;durP1;ratioP1;P1;durP2;ratioP2;P2;SDS_P1;SDS_P2;PMS_P1;PMS_P2;Temp;Humidity;BMP_temperature;BMP_pressure;BME280_temperature;BME280_humidity;BME280_pressure;Samples;Min_cycle;Max_cycle;Signal;HPM_P1;HPM_P2
2022/02/02 00:00:19;;;;;;;4.67;2.33;;;;;;;;;;6202316;23;20263;-89
2022/02/02 00:03:26;;;;;;;2.50;1.90;;;;;;;;;;6202363;23;20176;-90
2022/02/02 00:06:38;;;;;;;3.57;2.10;;;;;;;;;;6202483;23;20199;-92
2022/02/02 00:09:51;;;;;;;5.57;2.30;;;;;;;;;;6202855;23;20171;-91
2022/02/02 00:13:01;;;;;;;3.37;2.23;;;;;;;;;;6203350;23;20175;-89
2022/02/02 00:16:15;;;;;;;4.63;2.10;;;;;;;;;;6202447;23;20163;-89
2022/02/02 00:19:34;;;;;;;3.40;1.83;;;;;;;;;;6202317;23;20208;-89
2022/02/02 00:22:42;;;;;;;3.57;1.90;;;;;;;;;;6203059;23;20195;-90
2022/02/02 00:25:54;;;;;;;2.47;1.50;;;;;;;;;;6204059;23;20171;-90
2022/02/02 00:29:05;;;;;;;3.10;1.43;;;;;;;;;;6201556;23;20177;-90
2022/02/02 00:32:18;;;;;;;2.57;1.60;;;;;;;;;;6202739;23;20219;-90
2022/02/02 00:35:28;;;;;;;2.43;1.40;;;;;;;;;;6204579;23;20193;-89
2022/02/02 00:38:34;;;;;;;2.80;1.30;;;;;;;;;;6200830;23;20168;-88
2022/02/02 00:41:40;;;;;;;2.83;1.40;;;;;;;;;;6203338;23;20188;-90
2022/02/02 00:44:53;;;;;;;1.67;1.17;;;;;;;;;;6201856;23;20500;-88
2022/02/02 00:48:01;;;;;;;2.23;1.40;;;;;;;;;;6205876;23;20152;-91
2022/02/02 00:51:08;;;;;;;2.03;1.43;;;;;;;;;;6204811;23;20168;-89
2022/02/02 00:54:20;;;;;;;2.50;1.50;;;;;;;;;;6206333;23;20167;-90
2022/02/02 00:57:41;;;;;;;2.50;1.60;;;;;;;;;;6207063;23;20313;-89
2022/02/02 01:00:49;;;;;;;2.20;1.50;;;;;;;;;;6208077;23;20241;-88
2022/02/02 01:03:55;;;;;;;2.63;1.50;;;;;;;;;;6205883;23;20196;-92
2022/02/02 01:10:26;;;;;;;5.20;1.90;;;;;;;;;;6207999;23;20179;-89
2022/02/02 01:14:30;;;;;;;6.47;2.50;;;;;;;;;;6205714;23;20151;-90
2022/02/02 01:17:45;;;;;;;5.23;2.47;;;;;;;;;;6207702;23;20196;-89
2022/02/02 01:20:57;;;;;;;6.03;2.53;;;;;;;;;;6207123;23;20223;-90
2022/02/02 01:30:54;;;;;;;4.73;2.40;;;;;;;;;;6206907;23;20219;-90
2022/02/02 01:34:02;;;;;;;6.90;2.60;;;;;;;;;;6206471;23;20171;-91
2022/02/02 01:37:17;;;;;;;8.07;3.10;;;;;;;;;;6202900;23;20250;-89
2022/02/02 01:40:35;;;;;;;11.07;2.93;;;;;;;;;;6205566;23;20192;-91
2022/02/02 01:43:46;;;;;;;6.17;2.30;;;;;;;;;;6205102;23;20215;-90
2022/02/02 01:46:53;;;;;;;8.67;2.80;;;;;;;;;;6204922;23;20220;-91
2022/02/02 01:50:17;;;;;;;5.97;2.30;;;;;;;;;;6206228;23;20224;-86
2022/02/02 01:53:34;;;;;;;6.73;2.83;;;;;;;;;;6205633;23;20243;-86
2022/02/02 01:56:40;;;;;;;8.37;2.77;;;;;;;;;;6203686;23;20175;-88
2022/02/02 01:59:47;;;;;;;10.03;3.00;;;;;;;;;;6204855;23;20216;-87
2022/02/02 02:02:52;;;;;;;5.47;2.30;;;;;;;;;;6207203;23;20167;-88
2022/02/02 02:05:59;;;;;;;4.20;2.63;;;;;;;;;;6206912;23;20171;-88
2022/02/02 02:09:05;;;;;;;3.27;2.27;;;;;;;;;;6206224;23;20224;-90
2022/02/02 02:12:11;;;;;;;6.70;2.40;;;;;;;;;;6201997;23;20263;-88
2022/02/02 02:15:18;;;;;;;5.43;2.33;;;;;;;;;;6202933;23;20267;-90
2022/02/02 02:18:23;;;;;;;2.80;1.97;;;;;;;;;;6203588;23;20168;-88
2022/02/02 02:21:31;;;;;;;7.00;2.30;;;;;;;;;;6204571;23;20167;-86
2022/02/02 02:24:41;;;;;;;4.87;2.13;;;;;;;;;;6206169;23;20184;-90
2022/02/02 02:27:46;;;;;;;4.27;2.10;;;;;;;;;;6204632;23;20622;-88
2022/02/02 02:30:56;;;;;;;6.10;2.13;;;;;;;;;;6199983;23;20627;-90
2022/02/02 02:34:18;;;;;;;4.80;1.73;;;;;;;;;;6200905;23;20211;-91
2022/02/02 02:58:02;;;;;;;6.87;2.53;;;;;;;;;;6201835;23;20235;-88
2022/02/02 03:01:21;;;;;;;8.43;2.23;;;;;;;;;;6201218;23;20265;-92
2022/02/02 03:31:49;;;;;;;5.70;2.20;;;;;;;;;;6201816;23;20192;-88
2022/02/02 03:35:07;;;;;;;9.50;2.17;;;;;;;;;;6200752;23;20172;-88
2022/02/02 03:52:03;;;;;;;8.77;2.23;;;;;;;;;;6198648;23;20164;-88
2022/02/02 03:55:20;;;;;;;6.53;2.20;;;;;;;;;;6198658;23;20176;-89
2022/02/02 03:58:30;;;;;;;7.00;2.43;;;;;;;;;;6200943;23;20557;-88
2022/02/02 04:01:52;;;;;;;5.27;2.13;;;;;;;;;;6200413;23;20613;-89
2022/02/02 04:08:25;;;;;;;6.70;1.97;;;;;;;;;;6199160;23;20163;-91
2022/02/02 04:11:37;;;;;;;7.63;2.50;;;;;;;;;;6198875;23;20168;-88
